Time;durP1;ratioP1;P1;durP2;ratioP2;P2;SDS_P1;SDS_P2;PMS_P1;PMS_P2;Temp;Humidity;BMP_temperature;BMP_pressure;BME280_temperature;BME280_humidity;BME280_pressure;Samples;Min_cycle;Max_cycle;Signal;HPM_P1;HPM_P2
2022/01/20 00:02:20;;;;;;;1.05;1.05;;;5.80;99.90;;;5.99;85.28;101388.97;5032164;28;20205;-65
2022/01/20 00:04:52;;;;;;;0.80;0.80;;;5.90;99.90;;;5.94;86.65;101389.16;5034158;28;20260;-65
2022/01/20 00:25:59;;;;;;;0.75;0.75;;;5.80;99.90;;;5.83;85.42;101390.47;5016573;28;20206;-66
2022/01/20 00:28:43;;;;;;;0.85;0.85;;;5.80;99.90;;;5.87;86.18;101397.25;5012008;28;20222;-66
2022/01/20 00:31:29;;;;;;;0.60;0.60;;;5.70;99.90;;;5.92;86.05;101405.69;5015502;28;20197;-65
2022/01/20 00:39:27;;;;;;;0.60;0.60;;;5.80;99.90;;;6.04;84.71;101400.84;5017069;28;20218;-64
2022/01/20 00:41:55;;;;;;;0.95;0.95;;;5.90;99.90;;;5.91;85.31;101397.06;5031383;28;20201;-65
2022/01/20 00:44:24;;;;;;;0.70;0.70;;;5.80;99.90;;;5.91;85.46;101399.66;5033039;28;20599;-65
2022/01/20 00:46:51;;;;;;;0.85;0.85;;;5.80;99.90;;;5.91;84.92;101399.66;5031806;28;20285;-62
2022/01/20 00:49:18;;;;;;;2.77;1.93;;;5.90;99.90;;;5.96;85.36;101396.88;5032300;28;20241;-65
2022/01/20 00:51:45;;;;;;;5.18;1.70;;;5.80;99.90;;;5.92;84.87;101411.69;5032509;28;21068;-63
2022/01/20 00:54:19;;;;;;;0.80;0.80;;;5.80;99.90;;;5.90;85.34;101416.06;5015978;28;20210;-65
2022/01/20 00:56:47;;;;;;;0.60;0.60;;;5.80;99.90;;;5.89;85.13;101417.00;5012492;28;20202;-64
2022/01/20 00:59:14;;;;;;;0.90;0.90;;;5.80;99.90;;;5.88;85.73;101415.28;5028832;28;20651;-64
2022/01/20 01:01:41;;;;;;;0.88;0.88;;;5.80;99.90;;;5.83;86.49;101422.41;5031477;28;20202;-65
2022/01/20 01:04:09;;;;;;;1.13;1.02;;;5.70;99.90;;;5.80;86.50;101419.06;5020472;28;20283;-63
2022/01/20 01:07:03;;;;;;;0.60;0.60;;;5.70;99.90;;;5.84;86.28;101424.09;4998901;28;20205;-63
2022/01/20 01:09:31;;;;;;;0.70;0.70;;;5.70;99.90;;;5.86;86.14;101414.53;5011589;28;20284;-62
2022/01/20 01:12:02;;;;;;;0.90;0.90;;;5.70;99.90;;;5.89;85.89;101406.63;5017466;28;20228;-64
2022/01/20 01:14:31;;;;;;;1.10;1.10;;;5.80;99.90;;;5.90;86.38;101413.50;5031775;28;20632;-64
2022/01/20 01:24:50;;;;;;;1.35;0.90;;;5.90;99.90;;;5.99;84.91;101423.47;5031004;28;20209;-65
2022/01/20 01:27:21;;;;;;;0.50;0.50;;;5.90;99.90;;;5.92;85.76;101418.63;4998164;28;20202;-66
2022/01/20 01:32:49;;;;;;;1.10;1.10;;;5.90;99.90;;;5.95;86.45;101423.66;5030673;28;20256;-64
2022/01/20 01:35:19;;;;;;;1.20;1.20;;;5.80;99.90;;;5.93;86.29;101422.88;5030445;28;20202;-65
2022/01/20 01:40:29;;;;;;;1.10;1.10;;;5.80;99.90;;;5.90;85.60;101410.91;5029411;28;20697;-64
2022/01/20 01:42:57;;;;;;;1.30;1.30;;;5.80;99.90;;;5.91;86.13;101424.69;5031587;28;20719;-65
2022/01/20 01:45:36;;;;;;;0.90;0.90;;;5.80;99.90;;;5.98;85.98;101424.41;5013185;28;20206;-65
2022/01/20 01:48:04;;;;;;;4.00;2.22;;;5.90;99.90;;;5.95;86.06;101429.69;5029278;28;20267;-64
2022/01/20 01:50:32;;;;;;;0.73;0.73;;;5.80;99.90;;;5.97;86.30;101425.28;5030581;28;20237;-65
2022/01/20 01:53:05;;;;;;;1.30;1.30;;;5.90;99.90;;;5.99;85.84;101423.47;5013546;28;20652;-63
2022/01/20 01:55:35;;;;;;;1.13;1.13;;;5.80;99.90;;;6.03;85.81;101419.00;5008531;28;20198;-65
2022/01/20 01:58:02;;;;;;;0.85;0.85;;;5.90;99.90;;;5.94;85.48;101425.41;5020619;28;20226;-64
2022/01/20 02:00:30;;;;;;;2.17;2.00;;;5.90;99.90;;;5.97;85.47;101420.13;5012042;28;20194;-64
2022/01/20 02:02:59;;;;;;;1.55;1.48;;;5.80;99.90;;;5.93;85.92;101423.75;5012869;28;20620;-63
2022/01/20 02:05:27;;;;;;;1.50;1.40;;;5.80;99.90;;;5.88;86.63;101436.03;5029543;28;20206;-65
2022/01/20 02:18:56;;;;;;;1.13;1.13;;;5.70;99.90;;;5.87;87.37;101434.34;4995435;28;20278;-67
2022/01/20 02:21:23;;;;;;;1.50;1.40;;;5.70;99.90;;;5.71;87.63;101438.41;5012101;28;20207;-66
2022/01/20 02:23:50;;;;;;;1.50;1.50;;;5.60;99.90;;;5.73;87.39;101425.41;5019714;28;20574;-66
2022/01/20 02:26:17;;;;;;;2.03;1.88;;;5.50;99.90;;;5.72;87.82;101419.38;5022161;28;20289;-64
2022/01/20 02:28:45;;;;;;;1.95;1.85;;;5.60;99.90;;;5.71;87.19;101422.84;5029914;28;20228;-66
2022/01/20 02:31:13;;;;;;;1.73;1.50;;;5.60;99.90;;;5.67;88.22;101426.47;5031372;28;20245;-64
2022/01/20 02:33:40;;;;;;;1.40;1.40;;;5.50;99.90;;;5.69;87.90;101424.66;5030496;28;20764;-67
2022/01/20 02:36:12;;;;;;;2.00;1.90;;;5.50;99.90;;;5.68;88.18;101423.00;5029080;28;20281;-66
2022/01/20 02:38:48;;;;;;;1.70;1.60;;;5.50;99.90;;;5.66;88.36;101429.97;5029494;28;20722;-64
2022/01/20 02:46:46;;;;;;;1.50;1.50;;;5.50;99.90;;;5.62;88.30;101433.59;5027670;28;20289;-66
2022/01/20 02:49:16;;;;;;;1.07;1.07;;;5.50;99.90;;;5.66;89.08;101432.56;5034666;28;20226;-65
2022/01/20 02:51:54;;;;;;;1.38;1.35;;;5.50;99.90;;;5.65;88.70;101430.88;5035164;28;20648;-66
2022/01/20 02:54:22;;;;;;;2.75;2.30;;;5.50;99.90;;;5.65;88.77;101437.78;5034871;28;20222;-65
2022/01/20 02:56:49;;;;;;;1.60;1.60;;;5.50;99.90;;;5.61;89.25;101431.06;5033112;28;20703;-66
2022/01/20 02:59:16;;;;;;;1.67;1.58;;;5.40;99.90;;;5.64;88.75;101431.78;5034461;28;20636;-66
2022/01/20 03:01:43;;;;;;;2.00;1.90;;;5.50;99.90;;;5.61;88.90;101426.72;5034673;28;20207;-64
2022/01/20 03:04:11;;;;;;;1.75;1.67;;;5.40;99.90;;;5.49;89.42;101417.66;5032989;28;20205;-66
2022/01/20 03:06:39;;;;;;;1.95;1.85;;;5.30;99.90;;;5.46;89.45;101420.41;5034055;28;20205;-65
2022/01/20 03:09:06;;;;;;;1.58;1.48;;;5.30;99.90;;;5.45;89.47;101410.09;5010550;28;20222;-63
2022/01/20 03:11:34;;;;;;;1.80;1.67;;;5.30;99.90;;;5.40;89.88;101412.03;4999140;28;20208;-65
2022/01/20 03:14:01;;;;;;;2.10;2.00;;;5.20;99.90;;;5.34;89.76;101413.09;5015592;28;20225;-66
2022/01/20 03:16:28;;;;;;;1.90;1.80;;;5.20;99.90;;;5.36;89.94;101413.03;5033217;28;20198;-67
2022/01/20 03:18:55;;;;;;;1.33;1.33;;;5.10;99.90;;;5.35;89.96;101416.50;5032642;28;20237;-67
2022/01/20 03:21:22;;;;;;;2.15;1.95;;;5.20;99.90;;;5.32;90.01;101416.66;5035175;28;20234;-65
2022/01/20 03:23:49;;;;;;;2.55;1.33;;;5.10;99.90;;;5.36;90.41;101410.44;5033622;28;20216;-66
2022/01/20 03:26:16;;;;;;;2.75;2.00;;;5.10;99.90;;;5.41;90.30;101409.38;5032417;28;20696;-65
2022/01/20 03:28:43;;;;;;;1.75;1.65;;;5.20;99.90;;;5.39;90.32;101415.50;5009210;28;20232;-65
2022/01/20 03:31:10;;;;;;;1.98;1.88;;;5.30;99.90;;;5.42;91.24;101410.22;5014616;28;20329;-65
2022/01/20 03:33:37;;;;;;;1.80;1.73;;;5.30;99.90;;;5.46;90.58;101422.97;5000426;28;20285;-66
2022/01/20 03:36:04;;;;;;;2.88;2.60;;;5.40;99.90;;;5.44;90.30;101426.53;5033651;28;20202;-66
2022/01/20 03:38:31;;;;;;;2.05;1.95;;;5.30;99.90;;;5.44;90.44;101421.34;5033509;28;20230;-64
2022/01/20 03:40:58;;;;;;;2.10;1.70;;;5.30;99.90;;;5.39;90.08;101423.25;5014693;28;20206;-63
2022/01/20 03:43:25;;;;;;;1.55;1.55;;;5.30;99.90;;;5.36;90.62;101418.22;5015168;28;20198;-68
2022/01/20 03:45:56;;;;;;;1.30;1.30;;;5.20;99.90;;;5.40;90.57;101422.38;5031836;28;20237;-65
2022/01/20 03:48:27;;;;;;;2.22;2.13;;;5.20;99.90;;;5.38;90.73;101422.44;5031999;28;20222;-64
2022/01/20 03:51:02;;;;;;;2.30;2.10;;;5.20;99.90;;;5.27;91.33;101411.66;5016927;28;20210;-64
2022/01/20 03:53:38;;;;;;;1.75;1.65;;;5.20;99.90;;;5.23;91.45;101417.84;5032444;28;20833;-65
2022/01/20 03:56:07;;;;;;;1.88;1.77;;;5.10;99.90;;;5.27;91.20;101428.91;5012124;28;20206;-64
2022/01/20 03:58:34;;;;;;;1.90;1.80;;;5.10;99.90;;;5.21;91.09;101429.13;5009497;28;20705;-65
2022/01/20 04:01:00;;;;;;;2.00;1.85;;;5.00;99.90;;;5.15;91.42;101431.97;5033117;28;20289;-65
2022/01/20 04:03:28;;;;;;;1.67;1.45;;;5.00;99.90;;;5.10;92.03;101447.66;5034187;28;20205;-65
2022/01/20 04:05:57;;;;;;;1.80;1.70;;;4.90;99.90;;;5.07;91.94;101454.69;5032518;28;20573;-64
2022/01/20 04:08:31;;;;;;;1.63;1.52;;;4.90;99.90;;;5.07;91.59;101450.34;5032061;28;20221;-66
2022/01/20 04:11:01;;;;;;;3.13;2.20;;;4.90;99.90;;;4.97;91.55;101446.41;5015260;28;20248;-67
2022/01/20 04:13:30;;;;;;;1.98;1.73;;;4.80;99.90;;;5.03;91.66;101445.31;5031076;28;20813;-67
2022/01/20 04:16:18;;;;;;;2.20;2.00;;;4.90;99.90;;;5.00;91.67;101451.47;5015584;28;20197;-66
2022/01/20 04:18:55;;;;;;;3.55;2.25;;;4.80;99.90;;;5.00;91.94;101448.03;5031969;28;20230;-64
2022/01/20 04:21:31;;;;;;;2.03;1.92;;;4.80;99.90;;;4.92;91.80;101444.88;5032556;28;20633;-66
2022/01/20 04:24:00;;;;;;;1.25;1.15;;;4.70;99.90;;;4.92;92.16;101445.72;5032881;28;20762;-65
2022/01/20 04:26:29;;;;;;;1.70;1.60;;;4.80;99.90;;;4.95;92.19;101449.94;5008859;28;20302;-63
2022/01/20 04:28:57;;;;;;;1.48;1.48;;;4.80;99.90;;;4.94;91.63;101441.31;5028499;28;20316;-65
2022/01/20 04:31:26;;;;;;;1.90;1.80;;;4.80;99.90;;;4.79;92.22;101438.47;5028549;28;20249;-64
2022/01/20 04:33:56;;;;;;;4.45;1.52;;;4.70;99.90;;;4.81;92.09;101444.41;5033267;28;20222;-64
2022/01/20 04:36:30;;;;;;;1.75;1.60;;;4.70;99.90;;;4.78;92.50;101440.19;5033235;28;20705;-65
2022/01/20 04:38:59;;;;;;;3.15;1.63;;;4.60;99.90;;;4.73;92.64;101439.50;5032147;28;20222;-65
2022/01/20 04:41:29;;;;;;;2.10;1.92;;;4.60;99.90;;;4.73;92.58;101437.75;5031290;28;20206;-64
2022/01/20 04:44:01;;;;;;;1.70;1.60;;;4.60;99.90;;;4.63;92.95;101444.16;5032418;28;20202;-66
2022/01/20 04:46:37;;;;;;;2.70;2.15;;;4.50;99.90;;;4.61;92.99;101443.38;5014355;28;20205;-65
2022/01/20 04:57:01;;;;;;;1.88;1.77;;;4.50;99.90;;;4.57;93.50;101449.56;5015036;28;20232;-65
2022/01/20 04:57:24;;;;;;;2.50;1.55;;;4.20;99.90;;;4.37;93.77;101430.44;5025421;28;20588;-66
2022/01/20 04:59:54;;;;;;;3.67;1.85;;;4.20;99.90;;;4.25;94.18;101415.34;5028428;28;20207;-66
2022/01/20 05:02:25;;;;;;;2.20;1.98;;;4.10;99.90;;;4.17;94.83;101418.19;5030295;28;20201;-67
2022/01/20 05:04:53;;;;;;;2.83;2.25;;;4.00;99.90;;;4.19;94.36;101413.81;5030926;28;20224;-66
2022/01/20 05:07:25;;;;;;;2.03;1.80;;;4.00;99.90;;;4.19;94.32;101420.72;5030321;28;20670;-66
2022/01/20 05:09:54;;;;;;;2.60;2.47;;;4.00;99.90;;;4.16;94.44;101424.25;5031152;28;20200;-65
2022/01/20 05:12:27;;;;;;;2.47;1.80;;;4.00;99.90;;;4.09;94.56;101422.75;5033062;28;20213;-64
2022/01/20 05:14:54;;;;;;;1.77;1.75;;;3.90;99.90;;;4.10;94.68;101416.72;5019005;28;20232;-66
2022/01/20 05:17:21;;;;;;;1.55;1.45;;;3.90;99.90;;;4.11;94.54;101412.38;5024406;28;20281;-66
2022/01/20 05:19:48;;;;;;;2.25;2.05;;;4.00;99.90;;;4.02;94.27;101402.34;5031998;28;20640;-65
2022/01/20 05:22:15;;;;;;;2.00;1.90;;;3.90;99.90;;;3.90;94.79;101401.84;4999141;28;20245;-64
2022/01/20 05:24:42;;;;;;;1.80;1.70;;;3.80;99.90;;;3.89;95.21;101404.50;5031631;28;20213;-64
2022/01/20 05:27:09;;;;;;;4.28;2.33;;;3.70;99.90;;;3.83;95.65;101413.25;5012701;28;20952;-66
2022/01/20 05:29:36;;;;;;;2.00;1.80;;;3.70;99.90;;;3.81;95.69;101419.41;5030587;28;20202;-64
2022/01/20 05:32:03;;;;;;;2.58;1.95;;;3.60;99.90;;;3.83;95.96;101418.44;5031251;28;20293;-63
2022/01/20 05:34:30;;;;;;;2.67;2.20;;;3.60;99.90;;;3.82;95.49;101421.91;5030501;28;20251;-63
2022/01/20 05:36:58;;;;;;;4.20;1.95;;;3.60;99.90;;;3.87;95.57;101414.03;5030883;28;20208;-66
2022/01/20 05:39:25;;;;;;;1.98;1.83;;;3.70;99.90;;;3.89;94.95;101413.09;5012672;28;20217;-66
2022/01/20 05:41:52;;;;;;;2.17;1.65;;;3.70;99.90;;;3.97;93.99;101402.50;5031409;28;20252;-66
2022/01/20 05:44:18;;;;;;;3.22;2.15;;;3.80;99.90;;;3.93;93.62;101419.00;5013016;28;20289;-65
2022/01/20 05:46:49;;;;;;;2.15;1.60;;;3.80;99.90;;;3.91;94.10;101436.28;5012792;28;20700;-67
2022/01/20 05:49:20;;;;;;;1.70;1.60;;;3.70;99.90;;;3.85;93.70;101431.31;5030478;28;20310;-65
2022/01/20 05:51:54;;;;;;;1.90;1.70;;;3.70;99.90;;;3.84;94.09;101439.94;5014953;28;20201;-65
2022/01/20 05:54:22;;;;;;;1.85;1.75;;;3.70;99.90;;;3.93;93.72;101429.31;5030429;28;20225;-65
2022/01/20 05:56:50;;;;;;;1.48;1.27;;;3.80;99.90;;;3.93;93.64;101429.31;5009214;28;20198;-65
2022/01/20 05:59:17;;;;;;;1.13;1.13;;;3.80;99.90;;;3.99;93.00;101436.88;5029989;28;20217;-66
2022/01/20 06:01:51;;;;;;;1.92;1.83;;;3.90;99.90;;;3.98;93.81;101453.25;5007864;28;20202;-64
2022/01/20 06:04:18;;;;;;;2.20;1.40;;;3.80;99.90;;;4.05;93.52;101459.91;5010481;28;20217;-65
2022/01/20 06:06:45;;;;;;;0.93;0.93;;;3.90;99.90;;;4.10;92.80;101445.13;5020123;28;20285;-65
2022/01/20 06:09:12;;;;;;;1.50;1.42;;;4.00;99.90;;;4.18;92.49;101437.94;5030375;28;20218;-67
2022/01/20 06:11:39;;;;;;;5.10;1.60;;;4.10;99.90;;;4.24;92.15;101430.00;5030155;28;20572;-65
2022/01/20 06:14:06;;;;;;;1.35;1.35;;;4.10;99.90;;;4.24;91.85;101434.34;5012476;28;20608;-65
2022/01/20 06:16:35;;;;;;;5.50;2.10;;;4.10;99.90;;;4.30;92.11;101440.13;5030667;28;20236;-64
2022/01/20 06:19:02;;;;;;;1.52;1.35;;;4.20;99.90;;;4.37;91.88;101439.03;5029505;28;20639;-66
2022/01/20 06:21:29;;;;;;;2.15;1.30;;;4.30;99.90;;;4.47;90.73;101437.81;5031451;28;20198;-63
2022/01/20 06:23:56;;;;;;;2.42;2.10;;;4.40;99.90;;;4.51;90.36;101434.25;5030566;28;20205;-66
2022/01/20 06:26:23;;;;;;;1.20;1.20;;;4.40;99.90;;;4.48;90.41;101423.16;5030417;28;20225;-67
2022/01/20 06:28:50;;;;;;;2.70;1.20;;;4.40;99.90;;;4.53;90.12;101431.63;5013573;28;20222;-64
2022/01/20 06:31:17;;;;;;;2.85;1.60;;;4.50;99.90;;;4.61;89.67;101434.78;5011699;28;20224;-66
2022/01/20 06:33:44;;;;;;;1.35;1.20;;;4.50;99.90;;;4.65;89.53;101444.09;5033701;28;20264;-66
2022/01/20 06:36:11;;;;;;;3.47;1.42;;;4.60;99.90;;;4.72;89.02;101432.66;5009752;28;20627;-65
2022/01/20 06:38:38;;;;;;;2.00;1.30;;;4.60;99.90;;;4.75;88.92;101435.13;4995214;28;20221;-64
2022/01/20 06:41:05;;;;;;;1.00;1.00;;;4.70;99.90;;;4.76;88.34;101434.22;5031724;28;20299;-67
2022/01/20 06:43:33;;;;;;;0.82;0.82;;;4.70;99.90;;;4.79;88.20;101434.13;5029479;28;20198;-66
2022/01/20 06:46:00;;;;;;;3.55;1.35;;;4.70;99.90;;;4.82;87.56;101428.00;5029848;28;20209;-66
2022/01/20 06:48:27;;;;;;;0.82;0.82;;;4.70;99.90;;;4.85;87.25;101427.91;5000330;28;20249;-67
2022/01/20 06:50:54;;;;;;;1.25;1.10;;;4.80;99.90;;;4.78;87.46;101435.03;5004150;28;20198;-66
2022/01/20 06:53:21;;;;;;;1.33;1.33;;;4.70;99.90;;;4.78;87.08;101436.75;5029443;28;20205;-67
2022/01/20 06:55:48;;;;;;;1.13;1.13;;;4.60;99.90;;;4.66;87.70;101438.06;5028777;28;20656;-65
2022/01/20 06:58:15;;;;;;;1.77;0.95;;;4.60;99.90;;;4.70;87.22;101453.41;5028571;28;20218;-66
2022/01/20 07:00:42;;;;;;;4.05;1.45;;;4.60;99.90;;;4.73;86.73;101453.28;5029156;28;20204;-67
2022/01/20 07:03:09;;;;;;;1.13;1.13;;;4.60;99.90;;;4.59;87.38;101465.84;5029154;28;20194;-66
2022/01/20 07:05:36;;;;;;;2.17;1.17;;;4.50;99.90;;;4.51;87.63;101475.59;5012339;28;20233;-64
2022/01/20 07:08:03;;;;;;;2.90;1.40;;;4.40;99.90;;;4.45;87.92;101474.97;5029302;28;20217;-66
2022/01/20 07:10:30;;;;;;;2.58;1.10;;;4.30;99.90;;;4.41;88.09;101474.22;5029735;28;20293;-64
2022/01/20 07:12:57;;;;;;;1.20;1.20;;;4.20;99.90;;;4.37;87.92;101480.38;5028954;28;20209;-63
2022/01/20 07:15:24;;;;;;;1.42;1.40;;;4.20;99.90;;;4.44;88.40;101483.59;5016822;28;20233;-66
2022/01/20 07:17:51;;;;;;;1.92;1.70;;;4.30;99.90;;;4.46;87.63;101490.41;5012726;28;20312;-67
2022/01/20 07:20:18;;;;;;;4.05;1.65;;;4.30;99.90;;;4.45;87.93;101498.22;5029619;28;20281;-64
2022/01/20 07:22:47;;;;;;;3.05;1.40;;;4.30;99.90;;;4.39;88.23;101490.66;5019801;28;20828;-65
2022/01/20 07:25:15;;;;;;;3.60;1.65;;;4.20;99.90;;;4.48;87.49;101496.38;5005621;28;20282;-67
2022/01/20 07:27:41;;;;;;;0.90;0.90;;;4.30;99.90;;;4.41;87.56;101494.88;4997548;28;20229;-64
2022/01/20 07:30:26;;;;;;;3.40;1.30;;;4.30;99.90;;;4.47;87.47;101499.84;5012835;28;20297;-66
2022/01/20 07:32:54;;;;;;;1.05;1.05;;;4.30;99.90;;;4.50;86.47;101494.56;4996662;28;20210;-66
2022/01/20 07:35:20;;;;;;;1.20;1.20;;;4.40;99.90;;;4.44;86.84;101493.94;4997090;28;20232;-66
2022/01/20 07:37:48;;;;;;;1.30;0.80;;;4.30;99.90;;;4.55;86.34;101502.19;5028502;28;20232;-66
2022/01/20 07:40:15;;;;;;;0.52;0.52;;;4.40;99.90;;;4.54;86.22;101503.91;5015690;28;20713;-66
2022/01/20 07:42:42;;;;;;;1.08;1.08;;;4.40;99.90;;;4.58;85.81;101508.09;5033531;28;20198;-67
2022/01/20 07:45:09;;;;;;;0.85;0.85;;;4.40;99.90;;;4.60;85.39;101511.47;5032695;28;20229;-66
2022/01/20 07:47:36;;;;;;;1.35;1.20;;;4.40;99.90;;;4.58;85.38;101515.84;4998341;28;20218;-65
2022/01/20 07:50:04;;;;;;;1.23;1.13;;;4.50;99.90;;;4.65;85.30;101509.56;5031922;28;20216;-66
2022/01/20 07:52:31;;;;;;;0.70;0.70;;;4.50;99.90;;;4.61;85.29;101510.59;5031671;28;20687;-67
2022/01/20 07:54:58;;;;;;;2.30;1.85;;;4.50;99.90;;;4.77;84.52;101518.63;5020418;28;20214;-66
2022/01/20 07:57:25;;;;;;;2.67;1.08;;;4.60;99.90;;;4.86;84.61;101518.34;5029702;28;20221;-67
2022/01/20 07:59:52;;;;;;;1.95;1.10;;;4.70;99.90;;;5.08;84.66;101521.03;5030255;28;20202;-66
2022/01/20 08:02:19;;;;;;;1.20;1.20;;;4.90;99.90;;;5.28;83.25;101528.94;5016659;28;20281;-66
2022/01/20 08:04:46;;;;;;;1.33;1.23;;;5.20;99.90;;;5.91;80.97;101523.97;5028176;28;20204;-66
2022/01/20 08:07:14;;;;;;;0.65;0.65;;;5.90;99.90;;;6.41;78.11;101521.13;5019891;28;20202;-66
2022/01/20 08:09:41;;;;;;;1.33;1.20;;;6.60;99.90;;;6.65;76.02;101525.28;5031201;28;20737;-64
2022/01/20 08:12:19;;;;;;;0.85;0.85;;;6.70;99.90;;;7.38;73.98;101546.34;5038248;28;20216;-67
2022/01/20 08:14:46;;;;;;;0.93;0.90;;;7.50;99.90;;;8.47;70.15;101539.50;5040512;28;20601;-65
2022/01/20 08:17:13;;;;;;;1.27;0.90;;;8.70;99.90;;;9.61;65.96;101539.66;5031605;28;20213;-67
2022/01/20 08:19:40;;;;;;;1.27;1.17;;;10.00;99.90;;;10.70;61.35;101526.53;5031841;28;20663;-66
2022/01/20 08:22:07;;;;;;;3.60;1.43;;;11.30;99.90;;;11.75;58.13;101531.47;5031109;28;21506;-66
2022/01/20 08:24:54;;;;;;;3.20;1.40;;;12.40;99.90;;;12.78;54.26;101522.94;5014682;28;20620;-66
2022/01/20 08:27:21;;;;;;;3.97;1.30;;;13.80;97.20;;;13.63;52.60;101528.44;5028210;28;20643;-67
2022/01/20 08:29:48;;;;;;;1.73;1.30;;;14.60;94.40;;;14.58;49.44;101537.22;5030870;28;21207;-65
2022/01/20 08:32:15;;;;;;;1.70;1.10;;;15.70;90.80;;;15.51;44.91;101552.81;5033236;28;20613;-66
2022/01/20 08:34:43;;;;;;;3.10;1.53;;;17.10;79.90;;;16.29;43.52;101561.47;5014399;28;20664;-66
2022/01/20 08:37:10;;;;;;;4.00;1.60;;;18.30;70.70;;;17.66;41.49;101577.97;5031296;28;20703;-66
2022/01/20 08:42:05;;;;;;;3.63;2.00;;;20.60;60.90;;;19.27;36.87;101575.63;5031037;28;20632;-66
2022/01/20 08:44:36;;;;;;;2.27;1.40;;;21.50;56.30;;;20.47;35.58;101575.47;5019321;28;20617;-65
2022/01/20 08:47:09;;;;;;;2.17;1.90;;;22.20;54.90;;;21.37;34.22;101579.53;5031004;28;20616;-66
2022/01/20 08:49:37;;;;;;;3.10;1.93;;;23.10;52.60;;;22.27;32.21;101573.59;5033446;28;20988;-66
2022/01/20 08:52:04;;;;;;;2.93;2.13;;;24.10;49.80;;;22.83;31.20;101567.53;5032396;28;20643;-66
2022/01/20 08:54:31;;;;;;;4.90;2.33;;;24.90;47.70;;;23.83;29.27;101573.13;5014442;28;20663;-65
2022/01/20 08:56:58;;;;;;;3.17;2.60;;;26.00;45.80;;;24.40;28.57;101569.19;5030556;28;20664;-67
2022/01/20 08:59:26;;;;;;;5.33;2.40;;;26.70;44.20;;;25.17;27.29;101569.88;5031389;28;21107;-64
2022/01/20 09:01:53;;;;;;;4.00;2.03;;;27.50;42.80;;;26.10;26.17;101579.00;5031536;28;21188;-64
2022/01/20 09:04:20;;;;;;;3.43;2.03;;;28.50;41.60;;;25.80;25.96;101574.69;5031949;28;20673;-64
2022/01/20 09:06:47;;;;;;;3.73;1.80;;;28.50;40.40;;;27.05;24.68;101568.78;5031844;28;20612;-66
2022/01/20 09:09:17;;;;;;;3.50;1.73;;;29.30;40.10;;;28.19;23.96;101575.22;5030731;28;21020;-66
2022/01/20 09:12:02;;;;;;;2.60;1.70;;;30.70;38.90;;;28.93;22.28;101575.94;5031927;28;20635;-66
2022/01/20 09:17:15;;;;;;;3.07;1.70;;;31.60;36.80;;;28.77;22.64;101572.84;5031100;28;20711;-65
2022/01/20 09:19:42;;;;;;;39.53;19.30;;;31.40;36.80;;;28.63;22.74;101580.06;5027490;28;20667;-65
2022/01/20 09:22:09;;;;;;;5.27;3.20;;;31.50;36.50;;;27.82;23.38;101577.53;5032389;28;20720;-64
2022/01/20 09:24:37;;;;;;;105.83;87.80;;;30.90;36.30;;;25.59;25.37;101577.28;5031021;28;21233;-65
2022/01/20 09:27:04;;;;;;;40.83;19.43;;;28.10;38.00;;;22.56;28.97;101560.66;5030669;28;20723;-65
2022/01/20 09:29:31;;;;;;;26.50;1.50;;;24.60;40.90;;;19.99;32.94;101549.28;5009265;28;21177;-65
2022/01/20 09:32:00;;;;;;;29.63;1.87;;;21.60;44.40;;;18.05;36.04;101549.88;5011725;28;20617;-64
2022/01/20 09:34:27;;;;;;;26.07;1.80;;;19.30;48.20;;;16.62;38.88;101535.00;5030392;28;20641;-66
2022/01/20 09:36:54;;;;;;;25.13;1.60;;;17.50;51.40;;;15.80;40.91;101551.34;5012038;28;20617;-65
2022/01/20 09:39:21;;;;;;;21.70;1.57;;;16.30;53.90;;;14.41;44.14;101553.38;5030400;28;20642;-65
2022/01/20 09:41:48;;;;;;;17.77;1.77;;;15.10;56.70;;;13.36;46.28;101570.50;5026133;28;20632;-62
2022/01/20 09:44:15;;;;;;;16.83;1.43;;;14.00;59.60;;;11.87;49.97;101578.63;4996797;28;20739;-64
2022/01/20 09:46:45;;;;;;;18.07;1.50;;;12.60;64.20;;;10.55;54.89;101588.28;5013054;28;20613;-64
2022/01/20 09:49:14;;;;;;;19.40;1.20;;;11.30;74.80;;;8.95;58.91;101602.13;5014192;28;20679;-64
2022/01/20 09:51:42;;;;;;;0.73;0.60;;;9.90;90.80;;;7.86;62.55;101610.84;5032410;28;21017;-63
2022/01/20 09:54:09;;;;;;;1.97;0.90;;;8.50;99.90;;;7.13;66.05;101614.06;5010717;28;21106;-65
2022/01/20 09:56:37;;;;;;;1.33;0.80;;;7.80;99.90;;;6.96;65.20;101612.16;5011339;28;20665;-64
2022/01/20 09:59:04;;;;;;;1.47;0.83;;;7.30;99.90;;;6.77;64.95;101620.78;5030161;28;20643;-64
2022/01/20 10:01:43;;;;;;;0.60;0.60;;;7.00;99.90;;;6.72;65.33;101620.09;5030463;28;20629;-64
2022/01/20 10:04:25;;;;;;;6.67;1.00;;;6.80;99.90;;;6.63;67.45;101636.03;5029851;28;20652;-63
2022/01/20 10:06:57;;;;;;;1.00;0.50;;;6.70;99.90;;;6.66;68.65;101635.91;5030188;28;20625;-65
2022/01/20 10:09:41;;;;;;;6.80;0.70;;;6.80;99.90;;;6.75;68.45;101641.56;5030182;28;20656;-65
2022/01/20 10:12:11;;;;;;;1.33;0.50;;;6.90;99.90;;;6.82;68.86;101653.38;4978152;28;20593;-65
2022/01/20 10:14:54;;;;;;;0.67;0.67;;;7.10;99.90;;;7.03;68.68;101659.44;5021353;28;20675;-65
2022/01/20 10:17:31;;;;;;;1.40;0.70;;;7.30;99.90;;;7.33;67.96;101653.00;5023650;28;20612;-66
2022/01/20 10:20:04;;;;;;;1.53;0.70;;;7.50;99.90;;;7.34;66.97;101654.69;5026787;28;20628;-64
2022/01/20 10:22:35;;;;;;;0.50;0.50;;;7.60;99.90;;;7.31;68.34;101660.00;5030081;28;20616;-65
2022/01/20 10:25:11;;;;;;;2.53;0.70;;;7.60;99.90;;;7.34;66.92;101665.06;5030018;28;20723;-63
2022/01/20 10:27:52;;;;;;;0.50;0.50;;;7.50;99.90;;;7.46;66.80;101659.34;5030667;28;20656;-62
2022/01/20 10:30:22;;;;;;;0.80;0.63;;;7.60;99.90;;;7.62;66.27;101660.38;5013536;28;20628;-62
2022/01/20 10:32:52;;;;;;;0.50;0.40;;;7.80;99.90;;;8.00;65.27;101661.28;5029290;28;20624;-64
2022/01/20 10:35:32;;;;;;;3.17;0.60;;;8.20;99.90;;;8.01;66.27;101664.75;5011704;28;20656;-64
2022/01/20 10:38:03;;;;;;;3.23;0.67;;;8.20;99.90;;;8.13;65.72;101671.97;5014199;28;20646;-63
2022/01/20 10:40:30;;;;;;;0.50;0.50;;;8.20;99.90;;;8.37;64.82;101673.47;5029636;28;20630;-65
2022/01/20 10:42:57;;;;;;;0.70;0.70;;;8.50;99.90;;;8.44;64.30;101672.28;5031720;28;20716;-64
2022/01/20 10:45:27;;;;;;;1.30;0.83;;;8.70;99.90;;;8.32;65.34;101673.72;5030574;28;20620;-63
2022/01/20 10:47:58;;;;;;;0.63;0.63;;;8.80;99.90;;;8.73;64.36;101671.72;5013983;28;20641;-62
2022/01/20 10:50:30;;;;;;;1.63;0.60;;;9.00;99.90;;;8.63;64.53;101669.66;5012646;28;20643;-65
2022/01/20 10:52:57;;;;;;;1.03;0.60;;;9.10;99.90;;;8.77;65.00;101657.69;5013088;28;20617;-65
2022/01/20 10:55:33;;;;;;;0.83;0.60;;;9.00;99.90;;;8.45;66.34;101668.78;5010941;28;20674;-63
2022/01/20 10:58:15;;;;;;;0.83;0.83;;;8.70;99.90;;;8.19;66.82;101667.34;5009241;28;20760;-65
2022/01/20 11:00:48;;;;;;;4.33;1.20;;;8.40;99.90;;;8.09;66.49;101665.22;5024670;28;20664;-67
2022/01/20 11:03:16;;;;;;;0.63;0.63;;;8.30;99.90;;;7.76;68.04;101652.84;5029787;28;20647;-65
2022/01/20 11:05:49;;;;;;;0.70;0.70;;;8.00;99.90;;;7.63;68.26;101654.28;5033087;28;21078;-64
2022/01/20 11:08:17;;;;;;;1.07;1.00;;;7.80;99.90;;;7.62;67.93;101660.38;5032907;28;20664;-64
2022/01/20 11:10:45;;;;;;;2.13;1.03;;;7.80;99.90;;;7.76;68.61;101651.97;5014869;28;20632;-65
2022/01/20 11:13:16;;;;;;;1.50;1.27;;;7.90;99.90;;;7.86;67.94;101650.66;5030238;28;20739;-66
2022/01/20 11:15:44;;;;;;;4.23;1.30;;;8.10;99.90;;;7.87;67.74;101638.50;5031157;28;20656;-66
2022/01/20 11:18:11;;;;;;;0.77;0.77;;;8.10;99.90;;;8.07;66.77;101643.66;5063163;23;21575;-71
2022/01/20 11:20:48;;;;;;;1.30;1.13;;;8.30;99.90;;;7.59;66.81;101637.13;5015801;28;20628;-72
2022/01/20 11:23:15;;;;;;;0.97;0.97;;;8.00;99.90;;;7.90;66.48;101633.19;5015780;28;20620;-71
2022/01/20 11:25:44;;;;;;;1.10;1.00;;;8.10;99.90;;;8.11;64.71;101634.81;5040765;28;20733;-73
2022/01/20 11:28:21;;;;;;;2.83;1.20;;;8.30;99.90;;;8.28;64.21;101632.31;5026253;28;21041;-71
2022/01/20 11:31:00;;;;;;;0.70;0.70;;;8.50;99.90;;;8.25;64.47;101640.22;5026982;28;20701;-72
2022/01/20 11:33:37;;;;;;;4.20;1.10;;;8.40;99.90;;;8.28;63.71;101642.72;5032203;28;20681;-71
2022/01/20 11:36:08;;;;;;;1.77;1.43;;;8.40;99.90;;;7.71;61.97;101649.56;5026440;28;21249;-71
2022/01/20 11:39:00;;;;;;;2.37;1.20;;;8.10;99.90;;;7.49;60.80;101643.66;5033757;28;20720;-71